M I D A S
Marine Information and Data Acquisition System
Tripno 2228 of the Zeeleeuw from 2011-10-10 06:46:27 to 2011-10-10 09:52:16
Back to CruiseResearch ActivitiesStationsMapUnderway DataData graphs

EquipmentUnitsComments
TimeDGPSUTC
LatitudeDGPSDM.mWGS84
LongitudeDGPSDM.mWGS84
SpeedMeteo Stationm/sRelative wind speed
DirectionMeteo StationdegRelative wind direction
TemperatureMeteo Stationdeg CelciusAir temperature
PressureMeteo StationPaAtmospheric pressure
HumidityMeteo Station%Relative humidity
Missing or incorrect values are displayed as -999
Metereological data collected by the RV Zeeleeuw from 2011-10-10 06:42:49 to 2011-10-10 10:20:33
Time Latitude Longitude Speed Direction Temperature Pressure Humidity
2011-10-10 06:43 51°13.655 2°55.937 5.8 35 16.6 101600 54
2011-10-10 06:44 51°13.665 2°55.888 5.2 23 16.6 101600 53
2011-10-10 06:45 51°13.679 2°55.804 7.7 19 16.6 101600 54
2011-10-10 06:46 51°13.687 2°55.746 8.6 24 16.6 101600 53
2011-10-10 06:47 51°13.686 2°55.75 8.6 257 16.6 101610 53
2011-10-10 06:48 51°13.751 2°55.699 12.3 242 16.6 101600 53
2011-10-10 06:49 51°13.87 2°55.604 7.6 261 16.6 101600 52
2011-10-10 06:50 51°14.006 2°55.512 7.8 25 16.6 101580 53
2011-10-10 06:51 51°14.153 2°55.407 7.6 317 16.6 101590 53
2011-10-10 06:52 51°14.301 2°55.28 14.8 24 16.5 101570 54
2011-10-10 06:53 51°14.453 2°55.138 16.8 23 16.5 101540 54
2011-10-10 06:54 51°14.603 2°54.981 9.5 25 16.4 101560 53
2011-10-10 06:55 51°14.755 2°54.809 17.7 21 16.4 101530 54
2011-10-10 06:56 51°14.774 2°54.559 12.4 334 16.4 101490 54
2011-10-10 06:57 51°14.653 2°54.37 22 341 16.4 101520 53
2011-10-10 06:58 51°14.521 2°54.179 13.6 340 16.3 101510 55
2011-10-10 06:59 51°14.396 2°53.962 5.7 336 16.2 101510 55
2011-10-10 07:00 51°14.268 2°53.735 6 338 16.2 101540 55
2011-10-10 07:01 51°14.146 2°53.51 10.2 337 16.1 101550 55
2011-10-10 07:02 51°14.03 2°53.275 3.8 335 16.1 101570 55
2011-10-10 07:03 51°13.917 2°53.042 5.9 336 15.8 101540 56
2011-10-10 07:04 51°13.808 2°52.807 24.1 331 15.6 101540 57
2011-10-10 07:05 51°13.706 2°52.557 5.2 334 15.5 101550 56
2011-10-10 07:06 51°13.601 2°52.305 24 329 15.5 101570 57
2011-10-10 07:07 51°13.502 2°52.059 10.6 333 15.4 101540 57
2011-10-10 07:08 51°13.405 2°51.797 25.3 331 15.4 101580 57
2011-10-10 07:09 51°13.302 2°51.543 6.8 334 15.4 101580 58
2011-10-10 07:10 51°13.202 2°51.283 4.4 334 15.4 101590 58
2011-10-10 07:11 51°13.101 2°51.028 6 331 15.3 101550 58
2011-10-10 07:12 51°12.999 2°50.774 7 333 15.3 101550 58
2011-10-10 07:13 51°12.894 2°50.52 20.1 334 15.3 101560 56
2011-10-10 07:14 51°12.794 2°50.263 5.2 332 15.3 101560 58
2011-10-10 07:15 51°12.691 2°50.008 10.7 335 15.3 101550 58
2011-10-10 07:16 51°12.587 2°49.749 6.9 329 15.3 101570 58
2011-10-10 07:17 51°12.488 2°49.486 11 334 15.3 101550 58
2011-10-10 07:18 51°12.393 2°49.218 11.7 332 15.3 101560 58
2011-10-10 07:19 51°12.305 2°48.941 8.4 333 15.2 101550 58
2011-10-10 07:20 51°12.219 2°48.663 23.9 334 15.2 101560 58
2011-10-10 07:21 51°12.135 2°48.389 6.2 332 15.2 101550 57
2011-10-10 07:22 51°12.053 2°48.117 7.5 331 15.2 101560 58
2011-10-10 07:23 51°11.97 2°47.84 5.1 329 15.2 101540 58
2011-10-10 07:24 51°11.891 2°47.556 6.6 334 15.2 101530 58
2011-10-10 07:25 51°11.804 2°47.285 9.4 334 15.3 101550 58
2011-10-10 07:26 51°11.719 2°47.017 6.3 331 15.3 101530 58
2011-10-10 07:27 51°11.639 2°46.743 5.1 331 15.3 101560 58
2011-10-10 07:28 51°11.557 2°46.465 5.4 330 15.3 101580 58
2011-10-10 07:29 51°11.476 2°46.192 22.4 331 15.3 101560 57
2011-10-10 07:30 51°11.409 2°45.911 25.9 332 15.2 101570 58
2011-10-10 07:31 51°11.341 2°45.626 11.7 331 15.2 101570 58
2011-10-10 07:32 51°11.268 2°45.349 6.3 329 15.2 101580 58
2011-10-10 07:33 51°11.194 2°45.072 4.7 330 15.2 101590 58
2011-10-10 07:34 51°11.135 2°44.785 5.4 327 15.2 101580 58
2011-10-10 07:35 51°11.103 2°44.496 5.3 325 15.2 101560 59
2011-10-10 07:36 51°11.07 2°44.202 4.3 325 15.2 101550 59
2011-10-10 07:37 51°11.029 2°43.914 6.3 327 15.2 101550 59
2011-10-10 07:38 51°11.004 2°43.619 3 322 15.2 101590 59
2011-10-10 07:39 51°11.007 2°43.321 5 323 15.2 101520 58
2011-10-10 07:40 51°11.003 2°43.029 2.6 320 15.2 101520 58
2011-10-10 07:41 51°11.011 2°42.741 4.2 323 15.2 101480 58
2011-10-10 07:42 51°11.015 2°42.528 2.6 320 15.2 101560 58
2011-10-10 07:43 51°11.021 2°42.342 10.4 321 15.3 101570 58
2011-10-10 07:44 51°11.026 2°42.223 1.9 318 15.4 101600 58
2011-10-10 07:45 51°11.034 2°42.173 8.1 320 15.4 101590 58
2011-10-10 07:46 51°11.049 2°42.144 3.8 27 15.4 101590 58
2011-10-10 07:47 51°11.064 2°42.153 2.8 250 15.6 101610 58
2011-10-10 07:48 51°11.068 2°42.174 8.6 263 15.6 101670 58
2011-10-10 07:49 51°11.069 2°42.199 5.6 270 15.7 101680 57
2011-10-10 07:50 51°11.069 2°42.224 5.5 266 15.7 101660 57
2011-10-10 07:51 51°11.068 2°42.248 19.7 263 15.8 101660 57
2011-10-10 07:52 51°11.068 2°42.276 10.8 262 15.8 101670 57
2011-10-10 07:53 51°11.07 2°42.301 11.1 266 16 101660 57
2011-10-10 07:54 51°11.07 2°42.326 11.5 266 16.1 101670 56
2011-10-10 07:55 51°11.069 2°42.352 8.6 265 16.1 101680 56
2011-10-10 07:56 51°11.068 2°42.376 6.1 265 16.2 101660 57
2011-10-10 07:57 51°11.068 2°42.402 6.4 265 16.3 101690 55
2011-10-10 07:58 51°11.068 2°42.429 14.4 260 16.3 101640 55
2011-10-10 07:59 51°11.068 2°42.455 4.9 264 16.4 101670 55
2011-10-10 08:00 51°11.068 2°42.478 3.3 265 16.4 101630 55
2011-10-10 08:01 51°11.068 2°42.502 12.5 265 16.4 101660 55
2011-10-10 08:02 51°11.074 2°42.526 8.8 266 16.4 101670 55
2011-10-10 08:03 51°11.123 2°42.611 13.5 44 16.4 101640 54
2011-10-10 08:04 51°11.096 2°42.819 9.9 41 16.4 101610 55
2011-10-10 08:05 51°11.118 2°43.126 7.4 26 16.4 101630 54
2011-10-10 08:06 51°11.164 2°43.434 10.7 24 16.4 101630 54
2011-10-10 08:07 51°11.206 2°43.745 10.4 25 16.4 101630 55
2011-10-10 08:08 51°11.245 2°44.063 9.4 22 16.4 101640 55
2011-10-10 08:09 51°11.284 2°44.374 9.3 26 16.4 101640 55
2011-10-10 08:10 51°11.326 2°44.685 5.4 25 16.4 101640 55
2011-10-10 08:11 51°11.367 2°44.997 11.2 22 16.4 101630 54
2011-10-10 08:12 51°11.412 2°45.308 8.4 27 16.4 101630 55
2011-10-10 08:13 51°11.484 2°45.604 6.9 25 16.7 101630 55
2011-10-10 08:14 51°11.565 2°45.902 5.9 28 17.1 101640 55
2011-10-10 08:15 51°11.638 2°46.199 7.4 28 17.4 101650 54
2011-10-10 08:16 51°11.717 2°46.496 6.7 23 17.5 101640 53
2011-10-10 08:17 51°11.79 2°46.793 4.9 29 17.8 101650 52
2011-10-10 08:18 51°11.878 2°47.079 3.9 21 17.7 101650 52
2011-10-10 08:19 51°11.96 2°47.371 4.8 27 17.5 101640 51
2011-10-10 08:20 51°12.028 2°47.677 8.5 20 17.6 101650 53
2011-10-10 08:21 51°12.094 2°47.994 7.6 21 17.7 101660 53
2011-10-10 08:22 51°12.178 2°48.288 9.7 25 17.7 101640 50
2011-10-10 08:23 51°12.288 2°48.57 10.4 29 17.4 101660 51
2011-10-10 08:24 51°12.383 2°48.857 6.7 23 17.2 101650 52
2011-10-10 08:25 51°12.475 2°49.144 7 23 17.3 101630 54
2011-10-10 08:26 51°12.57 2°49.44 5.4 21 17.4 101630 51
2011-10-10 08:27 51°12.672 2°49.722 4.9 26 17.3 101640 53
2011-10-10 08:28 51°12.757 2°49.996 6.4 20 17.4 101640 53
2011-10-10 08:29 51°12.84 2°50.247 5.1 24 17.4 101640 51
2011-10-10 08:30 51°12.929 2°50.505 6.9 24 17.2 101640 52
2011-10-10 08:31 51°13.027 2°50.774 6.4 21 17 101640 51
2011-10-10 08:32 51°13.132 2°51.046 11.1 20 16.9 101640 53
2011-10-10 08:33 51°13.238 2°51.324 6.8 23 16.9 101640 54
2011-10-10 08:34 51°13.34 2°51.602 6.8 29 16.8 101660 52
2011-10-10 08:35 51°13.441 2°51.888 9.2 25 16.7 101650 53
2011-10-10 08:36 51°13.544 2°52.162 7.9 24 16.7 101660 52
2011-10-10 08:37 51°13.659 2°52.44 9.1 20 16.7 101640 53
2011-10-10 08:38 51°13.76 2°52.719 8.5 26 16.7 101650 53
2011-10-10 08:39 51°13.857 2°53.012 8.7 25 17 101640 53
2011-10-10 08:40 51°13.986 2°53.265 6.4 20 16.9 101640 53
2011-10-10 08:41 51°14.121 2°53.512 10.5 25 16.8 101630 53
2011-10-10 08:42 51°14.251 2°53.767 6.2 25 16.8 101650 52
2011-10-10 08:43 51°14.411 2°53.962 7.5 267 16.7 101630 53
2011-10-10 08:44 51°14.599 2°54.075 12.9 267 16.7 101650 53
2011-10-10 08:45 51°14.791 2°54.174 9.5 262 16.6 101600 53
2011-10-10 08:46 51°14.985 2°54.264 9.2 263 16.6 101630 53
2011-10-10 08:47 51°15.179 2°54.362 13.4 263 16.6 101620 53
2011-10-10 08:48 51°15.367 2°54.453 6.1 261 16.6 101650 53
2011-10-10 08:49 51°15.562 2°54.502 14.2 254 16.6 101590 53
2011-10-10 08:50 51°15.751 2°54.483 1.3 250 16.7 101580 53
2011-10-10 08:51 51°15.93 2°54.401 19 22 16.7 101590 53
2011-10-10 08:52 51°16.104 2°54.33 1.2 248 16.8 101580 53
2011-10-10 08:53 51°16.222 2°54.291 3.7 250 16.8 101540 53
2011-10-10 08:54 51°16.273 2°54.299 6.8 252 16.8 101630 53
2011-10-10 08:55 51°16.293 2°54.339 4.2 256 16.8 101620 54
2011-10-10 08:56 51°16.305 2°54.39 13.6 259 16.7 101650 53
2011-10-10 08:57 51°16.314 2°54.446 12.8 266 16.7 101650 53
2011-10-10 08:58 51°16.323 2°54.498 9 264 16.7 101640 53
2011-10-10 08:59 51°16.333 2°54.548 9 261 16.8 101660 53
2011-10-10 09:00 51°16.344 2°54.601 9.9 264 16.7 101640 53
2011-10-10 09:01 51°16.356 2°54.655 4.4 260 16.7 101620 53
2011-10-10 09:02 51°16.366 2°54.712 12.6 265 16.7 101640 54
2011-10-10 09:03 51°16.375 2°54.766 14.8 262 16.7 101640 54
2011-10-10 09:04 51°16.384 2°54.822 4.8 266 16.7 101640 53
2011-10-10 09:05 51°16.392 2°54.883 5.8 267 16.7 101680 53
2011-10-10 09:06 51°16.4 2°54.939 6.7 262 16.7 101600 54
2011-10-10 09:07 51°16.409 2°54.998 9.8 260 16.7 101590 53
2011-10-10 09:08 51°16.419 2°55.057 4.8 265 16.7 101650 53
2011-10-10 09:09 51°16.429 2°55.116 14.9 263 16.7 101660 52
2011-10-10 09:10 51°16.438 2°55.176 22 261 16.7 101650 53
2011-10-10 09:11 51°16.446 2°55.235 14.8 261 16.8 101670 53
2011-10-10 09:12 51°16.453 2°55.293 7.6 261 16.8 101630 53
2011-10-10 09:13 51°16.462 2°55.35 10.5 265 16.8 101650 53
2011-10-10 09:14 51°16.471 2°55.414 11.5 262 16.7 101690 52
2011-10-10 09:15 51°16.481 2°55.473 4.9 265 16.7 101740 52
2011-10-10 09:16 51°16.494 2°55.532 10.3 263 16.7 101670 54
2011-10-10 09:17 51°16.505 2°55.593 21.4 261 16.7 101680 53
2011-10-10 09:18 51°16.534 2°55.635 24.1 25 16.7 101630 53
2011-10-10 09:19 51°16.556 2°55.58 22 338 16.7 101580 54
2011-10-10 09:20 51°16.511 2°55.471 9.5 334 16.7 101570 53
2011-10-10 09:21 51°16.465 2°55.291 5.3 332 16.8 101590 53
2011-10-10 09:22 51°16.421 2°55.102 5.6 331 16.8 101600 53
2011-10-10 09:23 51°16.374 2°54.91 22 329 16.8 101570 54
2011-10-10 09:24 51°16.337 2°54.716 6.9 329 16.1 101580 56
2011-10-10 09:25 51°16.289 2°54.519 11.1 332 15.7 101590 57
2011-10-10 09:26 51°16.249 2°54.34 21 329 15.6 101570 57
2011-10-10 09:27 51°16.244 2°54.297 15.6 324 15.4 101570 58
2011-10-10 09:28 51°16.264 2°54.332 16.8 25 15.4 101580 58
2011-10-10 09:29 51°16.285 2°54.398 23.2 258 15.4 101550 58
2011-10-10 09:30 51°16.301 2°54.467 14 263 15.4 101580 59
2011-10-10 09:31 51°16.315 2°54.538 6.8 264 15.4 101570 59
2011-10-10 09:32 51°16.331 2°54.608 5.1 263 15.4 101570 58
2011-10-10 09:33 51°16.347 2°54.679 7.6 263 15.4 101590 58
2011-10-10 09:34 51°16.363 2°54.753 14.9 262 15.5 101580 58
2011-10-10 09:35 51°16.385 2°54.825 5.9 258 15.5 101570 57
2011-10-10 09:36 51°16.433 2°54.834 16.2 318 15.6 101560 57
2011-10-10 09:37 51°16.432 2°54.769 4.8 334 15.7 101560 57
2011-10-10 09:38 51°16.393 2°54.703 7.8 339 15.7 101520 57
2011-10-10 09:39 51°16.355 2°54.639 8.4 342 15.8 101490 58
2011-10-10 09:40 51°16.305 2°54.563 9.1 335 15.9 101530 57
2011-10-10 09:41 51°16.262 2°54.445 2.6 332 16 101550 57
2011-10-10 09:42 51°16.214 2°54.317 16.8 327 16.1 101510 56
2011-10-10 09:43 51°16.237 2°54.248 8.3 25 16.1 101530 56
2011-10-10 09:44 51°16.268 2°54.284 5.3 24 16.2 101560 56
2011-10-10 09:45 51°16.293 2°54.353 9.2 259 16.3 101560 56
2011-10-10 09:46 51°16.313 2°54.429 3.9 267 16.3 101570 56
2011-10-10 09:47 51°16.367 2°54.455 5.1 25 16.4 101570 55
2011-10-10 09:48 51°16.393 2°54.428 17.8 323 16.4 101560 55
2011-10-10 09:49 51°16.417 2°54.46 15.6 316 16.5 101570 55
2011-10-10 09:50 51°16.451 2°54.473 19.9 23 16.5 101570 55
2011-10-10 09:51 51°16.467 2°54.43 7.5 328 16.5 101550 55
2011-10-10 09:52 51°16.446 2°54.327 11.9 332 16.6 101550 54
2011-10-10 09:53 51°16.404 2°54.159 11.2 329 16.6 101550 54
2011-10-10 09:54 51°16.359 2°53.96 8.7 333 16.2 101570 55
2011-10-10 09:55 51°16.292 2°53.766 5.7 337 16 101560 56
2011-10-10 09:56 51°16.211 2°53.59 9.4 335 15.9 101580 56
2011-10-10 09:57 51°16.125 2°53.433 6.2 336 15.9 101540 57
2011-10-10 09:58 51°16.031 2°53.293 5.4 349 16 101570 57
2011-10-10 09:59 51°15.906 2°53.293 18.4 17 15.8 101520 57
2011-10-10 10:00 51°15.798 2°53.485 14.8 14 15.8 101570 57
2011-10-10 10:01 51°15.684 2°53.679 8.6 13 15.8 101550 57
2011-10-10 10:02 51°15.566 2°53.86 19.7 11 15.8 101580 57
2011-10-10 10:03 51°15.45 2°54.042 5.2 16 15.9 101580 57
2011-10-10 10:04 51°15.335 2°54.226 13.7 14 15.9 101580 57
2011-10-10 10:05 51°15.209 2°54.399 7.5 8 16 101580 56
2011-10-10 10:06 51°15.058 2°54.543 12.5 7 16 101560 55
2011-10-10 10:07 51°14.909 2°54.713 10.6 10 16.1 101570 56
2011-10-10 10:08 51°14.754 2°54.891 8.8 7 16.1 101560 56
2011-10-10 10:09 51°14.592 2°55.037 2.6 7 16.1 101570 55
2011-10-10 10:10 51°14.42 2°55.135 8.3 18 16.1 101560 55
2011-10-10 10:11 51°14.27 2°55.293 16.3 14 16.2 101600 54
2011-10-10 10:12 51°14.159 2°55.401 11.5 27 16.2 101620 54
2011-10-10 10:13 51°14.05 2°55.48 12.1 359 16.3 101640 55
2011-10-10 10:14 51°13.949 2°55.549 6.8 348 16.5 101640 55
2011-10-10 10:15 51°13.853 2°55.617 11.3 351 16.6 101620 53
2011-10-10 10:16 51°13.773 2°55.686 4.7 357 16.7 101630 53
2011-10-10 10:17 51°13.722 2°55.778 7.9 11 16.8 101620 53
2011-10-10 10:18 51°13.689 2°55.873 6.6 40 16.9 101630 53
2011-10-10 10:19 51°13.685 2°55.899 6.3 27 17 101650 51